Terminal Aerodrome Forecast
Issued by NWS

Home | Current Version | Previous Version | Text Only | Print | Product List | Glossary On
Versions: 1 2 3 4 5 6 7 8 9 10 11 12 13 14 15 16 17
000
FTUS42 KFFC 302344
TAFRYY
TAF
KRYY 302344Z 3100/3124 09010KT P6SM BKN015
     FM310100 09004KT P6SM SCT025 BKN100
     FM310600 08004KT 6SM BR SCT006 SCT100
     FM311000 08003KT 2SM BR BKN006
     FM311400 08005KT 5SM BR BKN012
     FM311600 07006KT P6SM BKN020
     FM311800 06008KT P6SM SCT025 SCT250
      AMD NOT SKED 3104/3112=

USA.gov is the U.S. government's official web portal to all federal, state and local government web resources and services.